NCAR-RAP Real-Time Weather Data

Output produced by METARs form (19 June 2018  07:02 UTC)
found at http://weather.rap.ucar.edu/surface/
 
Conditions at: KX60 observed 19 June 2018  06:55 UTC
Temperature: 25.0°C (77°F)
Dewpoint: 25.0°C (77°F) [RH = 100%]
Pressure (altimeter): 30.04 inches Hg (1017.4 mb)
Winds: calm
Visibility: 8 miles (13 km)
Ceiling: at least 12,000 feet AGL
Clouds: sky clear below 12,000 feet AGL
Present Weather: automated observation with no human augmentation;
there may or may not be significant weather present at this time
KX60 190655Z AUTO 00000KT 8SM CLR 25/25 A3004 RMK A01

Conditions at: KX60 observed 19 June 2018  06:35 UTC
Temperature: 25.0°C (77°F)
Dewpoint: 25.0°C (77°F) [RH = 100%]
Pressure (altimeter): 30.04 inches Hg (1017.4 mb)
Winds: calm
Visibility: 10 or more miles (16+ km)
Ceiling: at least 12,000 feet AGL
Clouds: sky clear below 12,000 feet AGL
Present Weather: automated observation with no human augmentation;
there may or may not be significant weather present at this time
KX60 190635Z AUTO 00000KT 10SM CLR 25/25 A3004 RMK A01

Conditions at: KX60 observed 19 June 2018  06:15 UTC
Temperature: 25.0°C (77°F)
Dewpoint: 25.0°C (77°F) [RH = 100%]
Pressure (altimeter): 30.05 inches Hg (1017.7 mb)
Winds: calm
Visibility: 10 or more miles (16+ km)
Ceiling: at least 12,000 feet AGL
Clouds: sky clear below 12,000 feet AGL
Present Weather: automated observation with no human augmentation;
there may or may not be significant weather present at this time
KX60 190615Z AUTO 00000KT 10SM CLR 25/25 A3005 RMK A01

Conditions at: KX60 observed 19 June 2018  05:55 UTC
Temperature: 25.0°C (77°F)
Dewpoint: 25.0°C (77°F) [RH = 100%]
Pressure (altimeter): 30.05 inches Hg (1017.7 mb)
Winds: calm
Visibility: 10 or more miles (16+ km)
Ceiling: at least 12,000 feet AGL
Clouds: sky clear below 12,000 feet AGL
Present Weather: automated observation with no human augmentation;
there may or may not be significant weather present at this time
KX60 190555Z AUTO 00000KT 10SM CLR 25/25 A3005 RMK A01

Conditions at: KX60 observed 19 June 2018  05:35 UTC
Temperature: 25.0°C (77°F)
Dewpoint: 25.0°C (77°F) [RH = 100%]
Pressure (altimeter): 30.05 inches Hg (1017.7 mb)
Winds: calm
Visibility: 10 or more miles (16+ km)
Ceiling: at least 12,000 feet AGL
Clouds: sky clear below 12,000 feet AGL
Present Weather: automated observation with no human augmentation;
there may or may not be significant weather present at this time
KX60 190535Z AUTO 00000KT 10SM CLR 25/25 A3005 RMK A01

Conditions at: KX60 observed 19 June 2018  05:15 UTC
Temperature: 25.0°C (77°F)
Dewpoint: 25.0°C (77°F) [RH = 100%]
Pressure (altimeter): 30.06 inches Hg (1018.0 mb)
Winds: calm
Visibility: 6 miles (10 km)
Ceiling: at least 12,000 feet AGL
Clouds: sky clear below 12,000 feet AGL
Present Weather: BR  (mist)
KX60 190515Z AUTO 00000KT 6SM BR CLR 25/25 A3006 RMK A01

Conditions at: KX60 observed 19 June 2018  04:55 UTC
Temperature: 26.0°C (79°F)
Dewpoint: 25.0°C (77°F) [RH = 94%]
Pressure (altimeter): 30.07 inches Hg (1018.4 mb)
Winds: calm
Visibility: 10 or more miles (16+ km)
Ceiling: at least 12,000 feet AGL
Clouds: sky clear below 12,000 feet AGL
Present Weather: automated observation with no human augmentation;
there may or may not be significant weather present at this time
KX60 190455Z AUTO 00000KT 10SM CLR 26/25 A3007 RMK A01

Conditions at: KX60 observed 19 June 2018  04:35 UTC
Temperature: 26.0°C (79°F)
Dewpoint: 25.0°C (77°F) [RH = 94%]
Pressure (altimeter): 30.07 inches Hg (1018.4 mb)
Winds: calm
Visibility: 10 or more miles (16+ km)
Ceiling: at least 12,000 feet AGL
Clouds: sky clear below 12,000 feet AGL
Present Weather: automated observation with no human augmentation;
there may or may not be significant weather present at this time
KX60 190435Z AUTO 00000KT 10SM CLR 26/25 A3007 RMK A01

Conditions at: KX60 observed 19 June 2018  04:15 UTC
Temperature: 26.0°C (79°F)
Dewpoint: 25.0°C (77°F) [RH = 94%]
Pressure (altimeter): 30.08 inches Hg (1018.7 mb)
Winds: calm
Visibility: 10 or more miles (16+ km)
Ceiling: at least 12,000 feet AGL
Clouds: sky clear below 12,000 feet AGL
Present Weather: automated observation with no human augmentation;
there may or may not be significant weather present at this time
KX60 190415Z AUTO 00000KT 10SM CLR 26/25 A3008 RMK A01

Conditions at: KX60 observed 19 June 2018  03:55 UTC
Temperature: 26.0°C (79°F)
Dewpoint: 25.0°C (77°F) [RH = 94%]
Pressure (altimeter): 30.08 inches Hg (1018.7 mb)
Winds: calm
Visibility: 10 or more miles (16+ km)
Ceiling: at least 12,000 feet AGL
Clouds: sky clear below 12,000 feet AGL
Present Weather: automated observation with no human augmentation;
there may or may not be significant weather present at this time
KX60 190355Z AUTO 00000KT 10SM CLR 26/25 A3008 RMK A01

Conditions at: KX60 observed 19 June 2018  03:35 UTC
Temperature: 26.0°C (79°F)
Dewpoint: 25.0°C (77°F) [RH = 94%]
Pressure (altimeter): 30.08 inches Hg (1018.7 mb)
Winds: calm
Visibility: 10 or more miles (16+ km)
Ceiling: at least 12,000 feet AGL
Clouds: sky clear below 12,000 feet AGL
Present Weather: automated observation with no human augmentation;
there may or may not be significant weather present at this time
KX60 190335Z AUTO 00000KT 10SM CLR 26/25 A3008 RMK A01

Conditions at: KX60 observed 19 June 2018  03:15 UTC
Temperature: 26.0°C (79°F)
Dewpoint: 25.0°C (77°F) [RH = 94%]
Pressure (altimeter): 30.08 inches Hg (1018.7 mb)
Winds: calm
Visibility: 10 or more miles (16+ km)
Ceiling: at least 12,000 feet AGL
Clouds: sky clear below 12,000 feet AGL
Present Weather: automated observation with no human augmentation;
there may or may not be significant weather present at this time
KX60 190315Z AUTO 00000KT 10SM CLR 26/25 A3008 RMK A01

Conditions at: KX60 observed 19 June 2018  02:55 UTC
Temperature: 26.0°C (79°F)
Dewpoint: 25.0°C (77°F) [RH = 94%]
Pressure (altimeter): 30.08 inches Hg (1018.7 mb)
Winds: calm
Visibility: 10 or more miles (16+ km)
Ceiling: at least 12,000 feet AGL
Clouds: sky clear below 12,000 feet AGL
Present Weather: automated observation with no human augmentation;
there may or may not be significant weather present at this time
KX60 190255Z AUTO 00000KT 10SM CLR 26/25 A3008 RMK A01

Conditions at: KX60 observed 19 June 2018  02:35 UTC
Temperature: 27.0°C (81°F)
Dewpoint: 25.0°C (77°F) [RH = 89%]
Pressure (altimeter): 30.07 inches Hg (1018.4 mb)
Winds: calm
Visibility: 10 or more miles (16+ km)
Ceiling: at least 12,000 feet AGL
Clouds: sky clear below 12,000 feet AGL
Present Weather: automated observation with no human augmentation;
there may or may not be significant weather present at this time
KX60 190235Z AUTO 00000KT 10SM CLR 27/25 A3007 RMK A01

Conditions at: KX60 observed 19 June 2018  02:15 UTC
Temperature: 27.0°C (81°F)
Dewpoint: 25.0°C (77°F) [RH = 89%]
Pressure (altimeter): 30.08 inches Hg (1018.7 mb)
Winds: calm
Visibility: 10 or more miles (16+ km)
Ceiling: at least 12,000 feet AGL
Clouds: sky clear below 12,000 feet AGL
Present Weather: automated observation with no human augmentation;
there may or may not be significant weather present at this time
KX60 190215Z AUTO 00000KT 10SM CLR 27/25 A3008 RMK A01

Conditions at: KX60 observed 19 June 2018  01:55 UTC
Temperature: 27.0°C (81°F)
Dewpoint: 25.0°C (77°F) [RH = 89%]
Pressure (altimeter): 30.08 inches Hg (1018.7 mb)
Winds: calm
Visibility: 10 or more miles (16+ km)
Ceiling: at least 12,000 feet AGL
Clouds: sky clear below 12,000 feet AGL
Present Weather: automated observation with no human augmentation;
there may or may not be significant weather present at this time
KX60 190155Z AUTO 00000KT 10SM CLR 27/25 A3008 RMK A01

Conditions at: KX60 observed 19 June 2018  01:35 UTC
Temperature: 27.0°C (81°F)
Dewpoint: 25.0°C (77°F) [RH = 89%]
Pressure (altimeter): 30.07 inches Hg (1018.4 mb)
Winds: calm
Visibility: 10 or more miles (16+ km)
Ceiling: at least 12,000 feet AGL
Clouds: sky clear below 12,000 feet AGL
Present Weather: automated observation with no human augmentation;
there may or may not be significant weather present at this time
KX60 190135Z AUTO 00000KT 10SM CLR 27/25 A3007 RMK A01

Conditions at: KX60 observed 19 June 2018  01:15 UTC
Temperature: 27.0°C (81°F)
Dewpoint: 25.0°C (77°F) [RH = 89%]
Pressure (altimeter): 30.06 inches Hg (1018.0 mb)
Winds: calm
Visibility: 10 or more miles (16+ km)
Ceiling: at least 12,000 feet AGL
Clouds: sky clear below 12,000 feet AGL
Present Weather: automated observation with no human augmentation;
there may or may not be significant weather present at this time
KX60 190115Z AUTO 00000KT 10SM CLR 27/25 A3006 RMK A01

Conditions at: KX60 observed 19 June 2018  00:55 UTC
Temperature: 27.0°C (81°F)
Dewpoint: 25.0°C (77°F) [RH = 89%]
Pressure (altimeter): 30.06 inches Hg (1018.0 mb)
Winds: calm
Visibility: 10 or more miles (16+ km)
Ceiling: at least 12,000 feet AGL
Clouds: sky clear below 12,000 feet AGL
Present Weather: automated observation with no human augmentation;
there may or may not be significant weather present at this time
KX60 190055Z AUTO 00000KT 10SM CLR 27/25 A3006 RMK A01

Conditions at: KX60 observed 19 June 2018  00:35 UTC
Temperature: 27.0°C (81°F)
Dewpoint: 25.0°C (77°F) [RH = 89%]
Pressure (altimeter): 30.07 inches Hg (1018.4 mb)
Winds: calm
Visibility: 10 or more miles (16+ km)
Ceiling: at least 12,000 feet AGL
Clouds: sky clear below 12,000 feet AGL
Present Weather: automated observation with no human augmentation;
there may or may not be significant weather present at this time
KX60 190035Z AUTO 00000KT 10SM CLR 27/25 A3007 RMK A01

Conditions at: KX60 observed 19 June 2018  00:15 UTC
Temperature: 28.0°C (82°F)
Dewpoint: 24.0°C (75°F) [RH = 79%]
Pressure (altimeter): 30.07 inches Hg (1018.4 mb)
Winds: from the E (90 degrees) at 7 MPH (6 knots; 3.1 m/s)
Visibility: 10 or more miles (16+ km)
Ceiling: at least 12,000 feet AGL
Clouds: sky clear below 12,000 feet AGL
Present Weather: automated observation with no human augmentation;
there may or may not be significant weather present at this time
KX60 190015Z AUTO 09006KT 10SM CLR 28/24 A3007 RMK A01

Conditions at: KX60 observed 18 June 2018  23:55 UTC
Temperature: 28.0°C (82°F)
Dewpoint: 23.0°C (73°F) [RH = 74%]
Pressure (altimeter): 30.07 inches Hg (1018.4 mb)
Winds: calm
Visibility: 10 or more miles (16+ km)
Ceiling: at least 12,000 feet AGL
Clouds: sky clear below 12,000 feet AGL
Present Weather: automated observation with no human augmentation;
there may or may not be significant weather present at this time
KX60 182355Z AUTO 00000KT 10SM CLR 28/23 A3007 RMK A01

Conditions at: KX60 observed 18 June 2018  23:35 UTC
Temperature: 27.0°C (81°F)
Dewpoint: 23.0°C (73°F) [RH = 79%]
Pressure (altimeter): 30.04 inches Hg (1017.4 mb)
Winds: from the N (350 degrees) at 9 MPH (8 knots; 4.2 m/s)
gusting to 15 MPH (13 knots; 6.8 m/s)
Visibility: 9 miles (14 km)
Ceiling: at least 12,000 feet AGL
Clouds: sky clear below 12,000 feet AGL
Present Weather: automated observation with no human augmentation;
there may or may not be significant weather present at this time
KX60 182335Z AUTO 35008G13KT 9SM CLR 27/23 A3004 RMK A01

Conditions at: KX60 observed 18 June 2018  23:15 UTC
Temperature: 29.0°C (84°F)
Dewpoint: 24.0°C (75°F) [RH = 74%]
Pressure (altimeter): 30.07 inches Hg (1018.4 mb)
Winds: from the WNW (290 degrees) at 17 MPH (15 knots; 7.8 m/s)
gusting to 28 MPH (24 knots; 12.5 m/s)
Visibility: 9 miles (14 km)
Ceiling: at least 12,000 feet AGL
Clouds: sky clear below 12,000 feet AGL
Present Weather: automated observation with no human augmentation;
there may or may not be significant weather present at this time
KX60 182315Z AUTO 29015G24KT 9SM CLR 29/24 A3007 RMK A01

Conditions at: KX60 observed 18 June 2018  22:55 UTC
Temperature: 32.0°C (90°F)
Dewpoint: 25.0°C (77°F) [RH = 67%]
Pressure (altimeter): 30.06 inches Hg (1018.0 mb)
Winds: from the W (280 degrees) at 10 MPH (9 knots; 4.7 m/s)
gusting to 20 MPH (17 knots; 8.8 m/s)
Visibility: 9 miles (14 km)
Ceiling: at least 12,000 feet AGL
Clouds: sky clear below 12,000 feet AGL
Present Weather: automated observation with no human augmentation;
there may or may not be significant weather present at this time
KX60 182255Z AUTO 28009G17KT 9SM CLR 32/25 A3006 RMK A01

Conditions at: KX60 observed 18 June 2018  22:35 UTC
Temperature: 33.0°C (91°F)
Dewpoint: 25.0°C (77°F) [RH = 63%]
Pressure (altimeter): 30.04 inches Hg (1017.4 mb)
Winds: calm
Visibility: 9 miles (14 km)
Ceiling: at least 12,000 feet AGL
Clouds: sky clear below 12,000 feet AGL
Present Weather: automated observation with no human augmentation;
there may or may not be significant weather present at this time
KX60 182235Z AUTO 00000KT 9SM CLR 33/25 A3004 RMK A01

Conditions at: KX60 observed 18 June 2018  22:15 UTC
Temperature: 36.0°C (97°F)
Dewpoint: 24.0°C (75°F) [RH = 50%]
Pressure (altimeter): 30.04 inches Hg (1017.4 mb)
Winds: calm
Visibility: 10 or more miles (16+ km)
Ceiling: at least 12,000 feet AGL
Clouds: sky clear below 12,000 feet AGL
Present Weather: automated observation with no human augmentation;
there may or may not be significant weather present at this time
KX60 182215Z AUTO 00000KT 10SM CLR 36/24 A3004 RMK A01

Conditions at: KX60 observed 18 June 2018  21:55 UTC
Temperature: 36.0°C (97°F)
Dewpoint: 24.0°C (75°F) [RH = 50%]
Pressure (altimeter): 30.03 inches Hg (1017.0 mb)
Winds: calm
Visibility: 10 or more miles (16+ km)
Ceiling: at least 12,000 feet AGL
Clouds: sky clear below 12,000 feet AGL
Present Weather: automated observation with no human augmentation;
there may or may not be significant weather present at this time
KX60 182155Z AUTO 00000KT 10SM CLR 36/24 A3003 RMK A01

Conditions at: KX60 observed 18 June 2018  21:35 UTC
Temperature: 36.0°C (97°F)
Dewpoint: 23.0°C (73°F) [RH = 47%]
Pressure (altimeter): 30.04 inches Hg (1017.4 mb)
Winds: calm
Visibility: 10 or more miles (16+ km)
Ceiling: at least 12,000 feet AGL
Clouds: sky clear below 12,000 feet AGL
Present Weather: automated observation with no human augmentation;
there may or may not be significant weather present at this time
KX60 182135Z AUTO 00000KT 10SM CLR 36/23 A3004 RMK A01

Conditions at: KX60 observed 18 June 2018  21:15 UTC
Temperature: 36.0°C (97°F)
Dewpoint: 23.0°C (73°F) [RH = 47%]
Pressure (altimeter): 30.05 inches Hg (1017.7 mb)
Winds: calm
Visibility: 10 or more miles (16+ km)
Ceiling: at least 12,000 feet AGL
Clouds: sky clear below 12,000 feet AGL
Present Weather: automated observation with no human augmentation;
there may or may not be significant weather present at this time
KX60 182115Z AUTO 00000KT 10SM CLR 36/23 A3005 RMK A01

Conditions at: KX60 observed 18 June 2018  20:55 UTC
Temperature: 36.0°C (97°F)
Dewpoint: 24.0°C (75°F) [RH = 50%]
Pressure (altimeter): 30.05 inches Hg (1017.7 mb)
Winds: calm
Visibility: 10 or more miles (16+ km)
Ceiling: at least 12,000 feet AGL
Clouds: sky clear below 12,000 feet AGL
Present Weather: automated observation with no human augmentation;
there may or may not be significant weather present at this time
KX60 182055Z AUTO 00000KT 10SM CLR 36/24 A3005 RMK A01

Conditions at: KX60 observed 18 June 2018  20:35 UTC
Temperature: 36.0°C (97°F)
Dewpoint: 24.0°C (75°F) [RH = 50%]
Pressure (altimeter): 30.05 inches Hg (1017.7 mb)
Winds: calm
Visibility: 10 or more miles (16+ km)
Ceiling: at least 12,000 feet AGL
Clouds: sky clear below 12,000 feet AGL
Present Weather: automated observation with no human augmentation;
there may or may not be significant weather present at this time
KX60 182035Z AUTO 00000KT 10SM CLR 36/24 A3005 RMK A01

Conditions at: KX60 observed 18 June 2018  20:15 UTC
Temperature: 36.0°C (97°F)
Dewpoint: 24.0°C (75°F) [RH = 50%]
Pressure (altimeter): 30.06 inches Hg (1018.0 mb)
Winds: calm
Visibility: 10 or more miles (16+ km)
Ceiling: at least 12,000 feet AGL
Clouds: sky clear below 12,000 feet AGL
Present Weather: automated observation with no human augmentation;
there may or may not be significant weather present at this time
KX60 182015Z AUTO 00000KT 10SM CLR 36/24 A3006 RMK A01

Conditions at: KX60 observed 18 June 2018  19:55 UTC
Temperature: 35.0°C (95°F)
Dewpoint: 24.0°C (75°F) [RH = 53%]
Pressure (altimeter): 30.06 inches Hg (1018.0 mb)
Winds: calm
Visibility: 10 or more miles (16+ km)
Ceiling: at least 12,000 feet AGL
Clouds: sky clear below 12,000 feet AGL
Present Weather: automated observation with no human augmentation;
there may or may not be significant weather present at this time
KX60 181955Z AUTO 00000KT 10SM CLR 35/24 A3006 RMK A01

Conditions at: KX60 observed 18 June 2018  19:35 UTC
Temperature: 35.0°C (95°F)
Dewpoint: 24.0°C (75°F) [RH = 53%]
Pressure (altimeter): 30.07 inches Hg (1018.4 mb)
Winds: calm
Visibility: 10 or more miles (16+ km)
Ceiling: at least 12,000 feet AGL
Clouds: sky clear below 12,000 feet AGL
Present Weather: automated observation with no human augmentation;
there may or may not be significant weather present at this time
KX60 181935Z AUTO 00000KT 10SM CLR 35/24 A3007 RMK A01

Conditions at: KX60 observed 18 June 2018  19:15 UTC
Temperature: 35.0°C (95°F)
Dewpoint: 24.0°C (75°F) [RH = 53%]
Pressure (altimeter): 30.08 inches Hg (1018.7 mb)
Winds: calm
Visibility: 10 or more miles (16+ km)
Ceiling: at least 12,000 feet AGL
Clouds: sky clear below 12,000 feet AGL
Present Weather: automated observation with no human augmentation;
there may or may not be significant weather present at this time
KX60 181915Z AUTO 00000KT 10SM CLR 35/24 A3008 RMK A01

Conditions at: KX60 observed 18 June 2018  18:55 UTC
Temperature: 35.0°C (95°F)
Dewpoint: 24.0°C (75°F) [RH = 53%]
Pressure (altimeter): 30.09 inches Hg (1019.0 mb)
Winds: calm
Visibility: 10 or more miles (16+ km)
Ceiling: at least 12,000 feet AGL
Clouds: sky clear below 12,000 feet AGL
Present Weather: automated observation with no human augmentation;
there may or may not be significant weather present at this time
KX60 181855Z AUTO 00000KT 10SM CLR 35/24 A3009 RMK A01

Conditions at: KX60 observed 18 June 2018  18:35 UTC
Temperature: 35.0°C (95°F)
Dewpoint: 25.0°C (77°F) [RH = 56%]
Pressure (altimeter): 30.10 inches Hg (1019.4 mb)
Winds: calm
Visibility: 10 or more miles (16+ km)
Ceiling: at least 12,000 feet AGL
Clouds: sky clear below 12,000 feet AGL
Present Weather: automated observation with no human augmentation;
there may or may not be significant weather present at this time
KX60 181835Z AUTO 00000KT 10SM CLR 35/25 A3010 RMK A01

Conditions at: KX60 observed 18 June 2018  18:15 UTC
Temperature: 34.0°C (93°F)
Dewpoint: 25.0°C (77°F) [RH = 60%]
Pressure (altimeter): 30.11 inches Hg (1019.7 mb)
Winds: calm
Visibility: 10 or more miles (16+ km)
Ceiling: at least 12,000 feet AGL
Clouds: sky clear below 12,000 feet AGL
Present Weather: automated observation with no human augmentation;
there may or may not be significant weather present at this time
KX60 181815Z AUTO 00000KT 10SM CLR 34/25 A3011 RMK A01

Conditions at: KX60 observed 18 June 2018  17:55 UTC
Temperature: 34.0°C (93°F)
Dewpoint: 25.0°C (77°F) [RH = 60%]
Pressure (altimeter): 30.11 inches Hg (1019.7 mb)
Winds: calm
Visibility: 10 or more miles (16+ km)
Ceiling: at least 12,000 feet AGL
Clouds: sky clear below 12,000 feet AGL
Present Weather: automated observation with no human augmentation;
there may or may not be significant weather present at this time
KX60 181755Z AUTO 00000KT 10SM CLR 34/25 A3011 RMK A01

Conditions at: KX60 observed 18 June 2018  17:35 UTC
Temperature: 34.0°C (93°F)
Dewpoint: 25.0°C (77°F) [RH = 60%]
Pressure (altimeter): 30.12 inches Hg (1020.1 mb)
Winds: calm
Visibility: 10 or more miles (16+ km)
Ceiling: at least 12,000 feet AGL
Clouds: sky clear below 12,000 feet AGL
Present Weather: automated observation with no human augmentation;
there may or may not be significant weather present at this time
KX60 181735Z AUTO 00000KT 10SM CLR 34/25 A3012 RMK A01

Conditions at: KX60 observed 18 June 2018  17:15 UTC
Temperature: 34.0°C (93°F)
Dewpoint: 26.0°C (79°F) [RH = 63%]
Pressure (altimeter): 30.12 inches Hg (1020.1 mb)
Winds: calm
Visibility: 10 or more miles (16+ km)
Ceiling: at least 12,000 feet AGL
Clouds: sky clear below 12,000 feet AGL
Present Weather: automated observation with no human augmentation;
there may or may not be significant weather present at this time
KX60 181715Z AUTO 00000KT 10SM CLR 34/26 A3012 RMK A01

Conditions at: KX60 observed 18 June 2018  16:55 UTC
Temperature: 34.0°C (93°F)
Dewpoint: 25.0°C (77°F) [RH = 60%]
Pressure (altimeter): 30.13 inches Hg (1020.4 mb)
Winds: calm
Visibility: 10 or more miles (16+ km)
Ceiling: at least 12,000 feet AGL
Clouds: sky clear below 12,000 feet AGL
Present Weather: automated observation with no human augmentation;
there may or may not be significant weather present at this time
KX60 181655Z AUTO 00000KT 10SM CLR 34/25 A3013 RMK A01

Conditions at: KX60 observed 18 June 2018  16:35 UTC
Temperature: 33.0°C (91°F)
Dewpoint: 25.0°C (77°F) [RH = 63%]
Pressure (altimeter): 30.13 inches Hg (1020.4 mb)
Winds: calm
Visibility: 10 or more miles (16+ km)
Ceiling: at least 12,000 feet AGL
Clouds: sky clear below 12,000 feet AGL
Present Weather: automated observation with no human augmentation;
there may or may not be significant weather present at this time
KX60 181635Z AUTO 00000KT 10SM CLR 33/25 A3013 RMK A01

Conditions at: KX60 observed 18 June 2018  16:15 UTC
Temperature: 33.0°C (91°F)
Dewpoint: 25.0°C (77°F) [RH = 63%]
Pressure (altimeter): 30.14 inches Hg (1020.7 mb)
Winds: calm
Visibility: 10 or more miles (16+ km)
Ceiling: at least 12,000 feet AGL
Clouds: sky clear below 12,000 feet AGL
Present Weather: automated observation with no human augmentation;
there may or may not be significant weather present at this time
KX60 181615Z AUTO 00000KT 10SM CLR 33/25 A3014 RMK A01

Conditions at: KX60 observed 18 June 2018  15:55 UTC
Temperature: 32.0°C (90°F)
Dewpoint: 26.0°C (79°F) [RH = 71%]
Pressure (altimeter): 30.14 inches Hg (1020.7 mb)
Winds: calm
Visibility: 10 or more miles (16+ km)
Ceiling: at least 12,000 feet AGL
Clouds: sky clear below 12,000 feet AGL
Present Weather: automated observation with no human augmentation;
there may or may not be significant weather present at this time
KX60 181555Z AUTO 00000KT 10SM CLR 32/26 A3014 RMK A01

Conditions at: KX60 observed 18 June 2018  15:35 UTC
Temperature: 32.0°C (90°F)
Dewpoint: 25.0°C (77°F) [RH = 67%]
Pressure (altimeter): 30.15 inches Hg (1021.1 mb)
Winds: calm
Visibility: 10 or more miles (16+ km)
Ceiling: at least 12,000 feet AGL
Clouds: sky clear below 12,000 feet AGL
Present Weather: automated observation with no human augmentation;
there may or may not be significant weather present at this time
KX60 181535Z AUTO 00000KT 10SM CLR 32/25 A3015 RMK A01

Conditions at: KX60 observed 18 June 2018  15:15 UTC
Temperature: 31.0°C (88°F)
Dewpoint: 26.0°C (79°F) [RH = 75%]
Pressure (altimeter): 30.15 inches Hg (1021.1 mb)
Winds: calm
Visibility: 10 or more miles (16+ km)
Ceiling: at least 12,000 feet AGL
Clouds: sky clear below 12,000 feet AGL
Present Weather: automated observation with no human augmentation;
there may or may not be significant weather present at this time
KX60 181515Z AUTO 00000KT 10SM CLR 31/26 A3015 RMK A01

Conditions at: KX60 observed 18 June 2018  14:55 UTC
Temperature: 31.0°C (88°F)
Dewpoint: 26.0°C (79°F) [RH = 75%]
Pressure (altimeter): 30.15 inches Hg (1021.1 mb)
Winds: calm
Visibility: 10 or more miles (16+ km)
Ceiling: at least 12,000 feet AGL
Clouds: sky clear below 12,000 feet AGL
Present Weather: automated observation with no human augmentation;
there may or may not be significant weather present at this time
KX60 181455Z AUTO 00000KT 10SM CLR 31/26 A3015 RMK A01

Conditions at: KX60 observed 18 June 2018  14:35 UTC
Temperature: 31.0°C (88°F)
Dewpoint: 26.0°C (79°F) [RH = 75%]
Pressure (altimeter): 30.14 inches Hg (1020.7 mb)
Winds: calm
Visibility: 10 or more miles (16+ km)
Ceiling: at least 12,000 feet AGL
Clouds: sky clear below 12,000 feet AGL
Present Weather: automated observation with no human augmentation;
there may or may not be significant weather present at this time
KX60 181435Z AUTO 00000KT 10SM CLR 31/26 A3014 RMK A01

Conditions at: KX60 observed 18 June 2018  14:15 UTC
Temperature: 31.0°C (88°F)
Dewpoint: 26.0°C (79°F) [RH = 75%]
Pressure (altimeter): 30.14 inches Hg (1020.7 mb)
Winds: calm
Visibility: 10 or more miles (16+ km)
Ceiling: at least 12,000 feet AGL
Clouds: sky clear below 12,000 feet AGL
Present Weather: automated observation with no human augmentation;
there may or may not be significant weather present at this time
KX60 181415Z AUTO 00000KT 10SM CLR 31/26 A3014 RMK A01

Conditions at: KX60 observed 18 June 2018  13:55 UTC
Temperature: 31.0°C (88°F)
Dewpoint: 26.0°C (79°F) [RH = 75%]
Pressure (altimeter): 30.15 inches Hg (1021.1 mb)
Winds: calm
Visibility: 10 or more miles (16+ km)
Ceiling: at least 12,000 feet AGL
Clouds: sky clear below 12,000 feet AGL
Present Weather: automated observation with no human augmentation;
there may or may not be significant weather present at this time
KX60 181355Z AUTO 00000KT 10SM CLR 31/26 A3015 RMK A01

Conditions at: KX60 observed 18 June 2018  13:35 UTC
Temperature: 30.0°C (86°F)
Dewpoint: 26.0°C (79°F) [RH = 79%]
Pressure (altimeter): 30.15 inches Hg (1021.1 mb)
Winds: calm
Visibility: 10 or more miles (16+ km)
Ceiling: at least 12,000 feet AGL
Clouds: sky clear below 12,000 feet AGL
Present Weather: automated observation with no human augmentation;
there may or may not be significant weather present at this time
KX60 181335Z AUTO 00000KT 10SM CLR 30/26 A3015 RMK A01

Conditions at: KX60 observed 18 June 2018  13:15 UTC
Temperature: 29.0°C (84°F)
Dewpoint: 27.0°C (81°F) [RH = 89%]
Pressure (altimeter): 30.16 inches Hg (1021.4 mb)
Winds: calm
Visibility: 10 or more miles (16+ km)
Ceiling: at least 12,000 feet AGL
Clouds: sky clear below 12,000 feet AGL
Present Weather: automated observation with no human augmentation;
there may or may not be significant weather present at this time
KX60 181315Z AUTO 00000KT 10SM CLR 29/27 A3016 RMK A01

Conditions at: KX60 observed 18 June 2018  12:55 UTC
Temperature: 28.0°C (82°F)
Dewpoint: 27.0°C (81°F) [RH = 94%]
Pressure (altimeter): 30.15 inches Hg (1021.1 mb)
Winds: from the E (80 degrees) at 3 MPH (3 knots; 1.6 m/s)
Visibility: 10 or more miles (16+ km)
Ceiling: unknown
Clouds: missing
Present Weather: automated observation with no human augmentation;
there may or may not be significant weather present at this time
KX60 181255Z AUTO 08003KT 10SM 28/27 A3015 RMK A01

Conditions at: KX60 observed 18 June 2018  12:35 UTC
Temperature: 27.0°C (81°F)
Dewpoint: 27.0°C (81°F) [RH = 100%]
Pressure (altimeter): 30.15 inches Hg (1021.1 mb)
Winds: calm
Visibility: 10 or more miles (16+ km)
Ceiling: unknown
Clouds: missing
Present Weather: automated observation with no human augmentation;
there may or may not be significant weather present at this time
KX60 181235Z AUTO 00000KT 10SM 27/27 A3015 RMK A01

Conditions at: KX60 observed 18 June 2018  12:15 UTC
Temperature: 26.0°C (79°F)
Dewpoint: 26.0°C (79°F) [RH = 100%]
Pressure (altimeter): 30.15 inches Hg (1021.1 mb)
Winds: calm
Visibility: 9 miles (14 km)
Ceiling: unknown
Clouds: missing
Present Weather: automated observation with no human augmentation;
there may or may not be significant weather present at this time
KX60 181215Z AUTO 00000KT 9SM 26/26 A3015 RMK A01

Conditions at: KX60 observed 18 June 2018  11:55 UTC
Temperature: 26.0°C (79°F)
Dewpoint: 26.0°C (79°F) [RH = 100%]
Pressure (altimeter): 30.14 inches Hg (1020.7 mb)
Winds: calm
Visibility: 9 miles (14 km)
Ceiling: unknown
Clouds: missing
Present Weather: automated observation with no human augmentation;
there may or may not be significant weather present at this time
KX60 181155Z AUTO 00000KT 9SM 26/26 A3014 RMK A01

Conditions at: KX60 observed 18 June 2018  11:35 UTC
Temperature: 25.0°C (77°F)
Dewpoint: 25.0°C (77°F) [RH = 100%]
Pressure (altimeter): 30.14 inches Hg (1020.7 mb)
Winds: calm
Visibility: 8 miles (13 km)
Ceiling: unknown
Clouds: missing
Present Weather: automated observation with no human augmentation;
there may or may not be significant weather present at this time
KX60 181135Z AUTO 00000KT 8SM 25/25 A3014 RMK A01

Conditions at: KX60 observed 18 June 2018  11:15 UTC
Temperature: 24.0°C (75°F)
Dewpoint: 24.0°C (75°F) [RH = 100%]
Pressure (altimeter): 30.14 inches Hg (1020.7 mb)
Winds: calm
Visibility: 6 miles (10 km)
Ceiling: unknown
Clouds: missing
Present Weather: BR  (mist)
KX60 181115Z AUTO 00000KT 6SM BR 24/24 A3014 RMK A01

Conditions at: KX60 observed 18 June 2018  10:55 UTC
Temperature: 24.0°C (75°F)
Dewpoint: 24.0°C (75°F) [RH = 100%]
Pressure (altimeter): 30.13 inches Hg (1020.4 mb)
Winds: calm
Visibility: 3 miles (5 km)
Ceiling: unknown
Clouds: missing
Present Weather: BR  (mist)
KX60 181055Z AUTO 00000KT 3SM BR 24/24 A3013 RMK A01

Conditions at: KX60 observed 18 June 2018  10:35 UTC
Temperature: 24.0°C (75°F)
Dewpoint: 24.0°C (75°F) [RH = 100%]
Pressure (altimeter): 30.12 inches Hg (1020.1 mb)
Winds: calm
Visibility: 6 miles (10 km)
Ceiling: unknown
Clouds: missing
Present Weather: BR  (mist)
KX60 181035Z AUTO 00000KT 6SM BR 24/24 A3012 RMK A01

Conditions at: KX60 observed 18 June 2018  10:15 UTC
Temperature: 24.0°C (75°F)
Dewpoint: 24.0°C (75°F) [RH = 100%]
Pressure (altimeter): 30.12 inches Hg (1020.1 mb)
Winds: calm
Visibility: 8 miles (13 km)
Ceiling: unknown
Clouds: missing
Present Weather: automated observation with no human augmentation;
there may or may not be significant weather present at this time
KX60 181015Z AUTO 00000KT 8SM 24/24 A3012 RMK A01

Conditions at: KX60 observed 18 June 2018  09:55 UTC
Temperature: 24.0°C (75°F)
Dewpoint: 24.0°C (75°F) [RH = 100%]
Pressure (altimeter): 30.11 inches Hg (1019.7 mb)
Winds: calm
Visibility: 10 or more miles (16+ km)
Ceiling: unknown
Clouds: missing
Present Weather: automated observation with no human augmentation;
there may or may not be significant weather present at this time
KX60 180955Z AUTO 00000KT 10SM 24/24 A3011 RMK A01

Conditions at: KX60 observed 18 June 2018  09:35 UTC
Temperature: 24.0°C (75°F)
Dewpoint: 24.0°C (75°F) [RH = 100%]
Pressure (altimeter): 30.11 inches Hg (1019.7 mb)
Winds: calm
Visibility: 5 miles (8 km)
Ceiling: unknown
Clouds: missing
Present Weather: BR  (mist)
KX60 180935Z AUTO 00000KT 5SM BR 24/24 A3011 RMK A01

Conditions at: KX60 observed 18 June 2018  09:15 UTC
Temperature: 24.0°C (75°F)
Dewpoint: 24.0°C (75°F) [RH = 100%]
Pressure (altimeter): 30.10 inches Hg (1019.4 mb)
Winds: calm
Visibility: 2.50 miles (4.02 km)
Ceiling: unknown
Clouds: missing
Present Weather: BR  (mist)
KX60 180915Z AUTO 00000KT 2 1/2SM BR 24/24 A3010 RMK A01 VIS 1 1/2V5

Conditions at: KX60 observed 18 June 2018  08:55 UTC
Temperature: 24.0°C (75°F)
Dewpoint: 24.0°C (75°F) [RH = 100%]
Pressure (altimeter): 30.10 inches Hg (1019.4 mb)
Winds: calm
Visibility: 1.25 miles (2.01 km)
Ceiling: unknown
Clouds: missing
Present Weather: BR  (mist)
KX60 180855Z AUTO 00000KT 1 1/4SM BR 24/24 A3010 RMK A01

Conditions at: KX60 observed 18 June 2018  08:35 UTC
Temperature: 24.0°C (75°F)
Dewpoint: 24.0°C (75°F) [RH = 100%]
Pressure (altimeter): 30.09 inches Hg (1019.0 mb)
Winds: calm
Visibility: 8 miles (13 km)
Ceiling: unknown
Clouds: missing
Present Weather: automated observation with no human augmentation;
there may or may not be significant weather present at this time
KX60 180835Z AUTO 00000KT 8SM 24/24 A3009 RMK A01

Conditions at: KX60 observed 18 June 2018  08:15 UTC
Temperature: 24.0°C (75°F)
Dewpoint: 24.0°C (75°F) [RH = 100%]
Pressure (altimeter): 30.09 inches Hg (1019.0 mb)
Winds: calm
Visibility: 10 or more miles (16+ km)
Ceiling: unknown
Clouds: missing
Present Weather: automated observation with no human augmentation;
there may or may not be significant weather present at this time
KX60 180815Z AUTO 00000KT 10SM 24/24 A3009 RMK A01

Conditions at: KX60 observed 18 June 2018  07:55 UTC
Temperature: 24.0°C (75°F)
Dewpoint: 24.0°C (75°F) [RH = 100%]
Pressure (altimeter): 30.10 inches Hg (1019.4 mb)
Winds: calm
Visibility: 9 miles (14 km)
Ceiling: unknown
Clouds: missing
Present Weather: automated observation with no human augmentation;
there may or may not be significant weather present at this time
KX60 180755Z AUTO 00000KT 9SM 24/24 A3010 RMK A01

Conditions at: KX60 observed 18 June 2018  07:35 UTC
Temperature: 24.0°C (75°F)
Dewpoint: 24.0°C (75°F) [RH = 100%]
Pressure (altimeter): 30.10 inches Hg (1019.4 mb)
Winds: calm
Visibility: 10 or more miles (16+ km)
Ceiling: unknown
Clouds: missing
Present Weather: automated observation with no human augmentation;
there may or may not be significant weather present at this time
KX60 180735Z AUTO 00000KT 10SM 24/24 A3010 RMK A01

Conditions at: KX60 observed 18 June 2018  07:15 UTC
Temperature: 24.0°C (75°F)
Dewpoint: 24.0°C (75°F) [RH = 100%]
Pressure (altimeter): 30.10 inches Hg (1019.4 mb)
Winds: calm
Visibility: 9 miles (14 km)
Ceiling: unknown
Clouds: missing
Present Weather: automated observation with no human augmentation;
there may or may not be significant weather present at this time
KX60 180715Z AUTO 00000KT 9SM 24/24 A3010 RMK A01

Conditions at: KX60 observed 18 June 2018  06:55 UTC
Temperature: 25.0°C (77°F)
Dewpoint: 25.0°C (77°F) [RH = 100%]
Pressure (altimeter): 30.11 inches Hg (1019.7 mb)
Winds: calm
Visibility: 10 or more miles (16+ km)
Ceiling: at least 12,000 feet AGL
Clouds: sky clear below 12,000 feet AGL
Present Weather: automated observation with no human augmentation;
there may or may not be significant weather present at this time
KX60 180655Z AUTO 00000KT 10SM CLR 25/25 A3011 RMK A01

Conditions at: KX60 observed 18 June 2018  06:35 UTC
Temperature: 25.0°C (77°F)
Dewpoint: 25.0°C (77°F) [RH = 100%]
Pressure (altimeter): 30.12 inches Hg (1020.1 mb)
Winds: calm
Visibility: 10 or more miles (16+ km)
Ceiling: at least 12,000 feet AGL
Clouds: sky clear below 12,000 feet AGL
Present Weather: automated observation with no human augmentation;
there may or may not be significant weather present at this time
KX60 180635Z AUTO 00000KT 10SM CLR 25/25 A3012 RMK A01

Conditions at: KX60 observed 18 June 2018  06:15 UTC
Temperature: 24.0°C (75°F)
Dewpoint: 24.0°C (75°F) [RH = 100%]
Pressure (altimeter): 30.12 inches Hg (1020.1 mb)
Winds: calm
Visibility: 10 or more miles (16+ km)
Ceiling: at least 12,000 feet AGL
Clouds: sky clear below 12,000 feet AGL
Present Weather: automated observation with no human augmentation;
there may or may not be significant weather present at this time
KX60 180615Z AUTO 00000KT 10SM CLR 24/24 A3012 RMK A01

Conditions at: KX60 observed 18 June 2018  05:55 UTC
Temperature: 24.0°C (75°F)
Dewpoint: 24.0°C (75°F) [RH = 100%]
Pressure (altimeter): 30.13 inches Hg (1020.4 mb)
Winds: calm
Visibility: 10 or more miles (16+ km)
Ceiling: at least 12,000 feet AGL
Clouds: sky clear below 12,000 feet AGL
Present Weather: automated observation with no human augmentation;
there may or may not be significant weather present at this time
KX60 180555Z AUTO 00000KT 10SM CLR 24/24 A3013 RMK A01

Conditions at: KX60 observed 18 June 2018  05:35 UTC
Temperature: 24.0°C (75°F)
Dewpoint: 24.0°C (75°F) [RH = 100%]
Pressure (altimeter): 30.13 inches Hg (1020.4 mb)
Winds: calm
Visibility: 10 or more miles (16+ km)
Ceiling: at least 12,000 feet AGL
Clouds: sky clear below 12,000 feet AGL
Present Weather: automated observation with no human augmentation;
there may or may not be significant weather present at this time
KX60 180535Z AUTO 00000KT 10SM CLR 24/24 A3013 RMK A01

Conditions at: KX60 observed 18 June 2018  04:55 UTC
Temperature: 25.0°C (77°F)
Dewpoint: 25.0°C (77°F) [RH = 100%]
Pressure (altimeter): 30.14 inches Hg (1020.7 mb)
Winds: calm
Visibility: 10 or more miles (16+ km)
Ceiling: at least 12,000 feet AGL
Clouds: sky clear below 12,000 feet AGL
Present Weather: automated observation with no human augmentation;
there may or may not be significant weather present at this time
KX60 180455Z AUTO 00000KT 10SM CLR 25/25 A3014 RMK A01

Conditions at: KX60 observed 18 June 2018  04:35 UTC
Temperature: 25.0°C (77°F)
Dewpoint: 25.0°C (77°F) [RH = 100%]
Pressure (altimeter): 30.14 inches Hg (1020.7 mb)
Winds: calm
Visibility: 10 or more miles (16+ km)
Ceiling: at least 12,000 feet AGL
Clouds: sky clear below 12,000 feet AGL
Present Weather: automated observation with no human augmentation;
there may or may not be significant weather present at this time
KX60 180435Z AUTO 00000KT 10SM CLR 25/25 A3014 RMK A01

Conditions at: KX60 observed 18 June 2018  04:15 UTC
Temperature: 25.0°C (77°F)
Dewpoint: 25.0°C (77°F) [RH = 100%]
Pressure (altimeter): 30.14 inches Hg (1020.7 mb)
Winds: calm
Visibility: 10 or more miles (16+ km)
Ceiling: at least 12,000 feet AGL
Clouds: sky clear below 12,000 feet AGL
Present Weather: automated observation with no human augmentation;
there may or may not be significant weather present at this time
KX60 180415Z AUTO 00000KT 10SM CLR 25/25 A3014 RMK A01

Conditions at: KX60 observed 18 June 2018  03:55 UTC
Temperature: 26.0°C (79°F)
Dewpoint: 25.0°C (77°F) [RH = 94%]
Pressure (altimeter): 30.14 inches Hg (1020.7 mb)
Winds: calm
Visibility: 10 or more miles (16+ km)
Ceiling: at least 12,000 feet AGL
Clouds: sky clear below 12,000 feet AGL
Present Weather: automated observation with no human augmentation;
there may or may not be significant weather present at this time
KX60 180355Z AUTO 00000KT 10SM CLR 26/25 A3014 RMK A01

Conditions at: KX60 observed 18 June 2018  03:35 UTC
Temperature: 26.0°C (79°F)
Dewpoint: 25.0°C (77°F) [RH = 94%]
Pressure (altimeter): 30.14 inches Hg (1020.7 mb)
Winds: calm
Visibility: 10 or more miles (16+ km)
Ceiling: at least 12,000 feet AGL
Clouds: sky clear below 12,000 feet AGL
Present Weather: automated observation with no human augmentation;
there may or may not be significant weather present at this time
KX60 180335Z AUTO 00000KT 10SM CLR 26/25 A3014 RMK A01

Conditions at: KX60 observed 18 June 2018  03:15 UTC
Temperature: 26.0°C (79°F)
Dewpoint: 24.0°C (75°F) [RH = 89%]
Pressure (altimeter): 30.14 inches Hg (1020.7 mb)
Winds: calm
Visibility: 10 or more miles (16+ km)
Ceiling: at least 12,000 feet AGL
Clouds: sky clear below 12,000 feet AGL
Present Weather: automated observation with no human augmentation;
there may or may not be significant weather present at this time
KX60 180315Z AUTO 00000KT 10SM CLR 26/24 A3014 RMK A01

Conditions at: KX60 observed 18 June 2018  02:55 UTC
Temperature: 26.0°C (79°F)
Dewpoint: 25.0°C (77°F) [RH = 94%]
Pressure (altimeter): 30.13 inches Hg (1020.4 mb)
Winds: calm
Visibility: 10 or more miles (16+ km)
Ceiling: at least 12,000 feet AGL
Clouds: sky clear below 12,000 feet AGL
Present Weather: automated observation with no human augmentation;
there may or may not be significant weather present at this time
KX60 180255Z AUTO 00000KT 10SM CLR 26/25 A3013 RMK A01

Conditions at: KX60 observed 18 June 2018  02:35 UTC
Temperature: 27.0°C (81°F)
Dewpoint: 25.0°C (77°F) [RH = 89%]
Pressure (altimeter): 30.13 inches Hg (1020.4 mb)
Winds: calm
Visibility: 10 or more miles (16+ km)
Ceiling: at least 12,000 feet AGL
Clouds: sky clear below 12,000 feet AGL
Present Weather: automated observation with no human augmentation;
there may or may not be significant weather present at this time
KX60 180235Z AUTO 00000KT 10SM CLR 27/25 A3013 RMK A01

Conditions at: KX60 observed 18 June 2018  02:15 UTC
Temperature: 26.0°C (79°F)
Dewpoint: 25.0°C (77°F) [RH = 94%]
Pressure (altimeter): 30.12 inches Hg (1020.1 mb)
Winds: calm
Visibility: 10 or more miles (16+ km)
Ceiling: at least 12,000 feet AGL
Clouds: sky clear below 12,000 feet AGL
Present Weather: automated observation with no human augmentation;
there may or may not be significant weather present at this time
KX60 180215Z AUTO 00000KT 10SM CLR 26/25 A3012 RMK A01

Conditions at: KX60 observed 18 June 2018  01:55 UTC
Temperature: 27.0°C (81°F)
Dewpoint: 25.0°C (77°F) [RH = 89%]
Pressure (altimeter): 30.12 inches Hg (1020.1 mb)
Winds: calm
Visibility: 10 or more miles (16+ km)
Ceiling: at least 12,000 feet AGL
Clouds: sky clear below 12,000 feet AGL
Present Weather: automated observation with no human augmentation;
there may or may not be significant weather present at this time
KX60 180155Z AUTO 00000KT 10SM CLR 27/25 A3012 RMK A01

Conditions at: KX60 observed 18 June 2018  01:35 UTC
Temperature: 27.0°C (81°F)
Dewpoint: 24.0°C (75°F) [RH = 84%]
Pressure (altimeter): 30.11 inches Hg (1019.7 mb)
Winds: calm
Visibility: 10 or more miles (16+ km)
Ceiling: at least 12,000 feet AGL
Clouds: sky clear below 12,000 feet AGL
Present Weather: automated observation with no human augmentation;
there may or may not be significant weather present at this time
KX60 180135Z AUTO 00000KT 10SM CLR 27/24 A3011 RMK A01

Conditions at: KX60 observed 18 June 2018  01:15 UTC
Temperature: 28.0°C (82°F)
Dewpoint: 25.0°C (77°F) [RH = 84%]
Pressure (altimeter): 30.12 inches Hg (1020.1 mb)
Winds: calm
Visibility: 10 or more miles (16+ km)
Ceiling: at least 12,000 feet AGL
Clouds: sky clear below 12,000 feet AGL
Present Weather: automated observation with no human augmentation;
there may or may not be significant weather present at this time
KX60 180115Z AUTO 00000KT 10SM CLR 28/25 A3012 RMK A01

Conditions at: KX60 observed 18 June 2018  00:55 UTC
Temperature: 28.0°C (82°F)
Dewpoint: 25.0°C (77°F) [RH = 84%]
Pressure (altimeter): 30.13 inches Hg (1020.4 mb)
Winds: calm
Visibility: 10 or more miles (16+ km)
Ceiling: at least 12,000 feet AGL
Clouds: sky clear below 12,000 feet AGL
Present Weather: automated observation with no human augmentation;
there may or may not be significant weather present at this time
KX60 180055Z AUTO 00000KT 10SM CLR 28/25 A3013 RMK A01

Conditions at: KX60 observed 18 June 2018  00:35 UTC
Temperature: 28.0°C (82°F)
Dewpoint: 25.0°C (77°F) [RH = 84%]
Pressure (altimeter): 30.12 inches Hg (1020.1 mb)
Winds: variable direction winds at 7 MPH (6 knots; 3.1 m/s)
Visibility: 10 or more miles (16+ km)
Ceiling: at least 12,000 feet AGL
Clouds: sky clear below 12,000 feet AGL
Present Weather: automated observation with no human augmentation;
there may or may not be significant weather present at this time
KX60 180035Z AUTO VRB06KT 10SM CLR 28/25 A3012 RMK A01

Conditions at: KX60 observed 18 June 2018  00:15 UTC
Temperature: 28.0°C (82°F)
Dewpoint: 25.0°C (77°F) [RH = 84%]
Pressure (altimeter): 30.12 inches Hg (1020.1 mb)
Winds: calm
Visibility: 10 or more miles (16+ km)
Ceiling: at least 12,000 feet AGL
Clouds: sky clear below 12,000 feet AGL
Present Weather: automated observation with no human augmentation;
there may or may not be significant weather present at this time
KX60 180015Z AUTO 00000KT 10SM CLR 28/25 A3012 RMK A01

Conditions at: KX60 observed 17 June 2018  23:55 UTC
Temperature: 28.0°C (82°F)
Dewpoint: 24.0°C (75°F) [RH = 79%]
Pressure (altimeter): 30.12 inches Hg (1020.1 mb)
Winds: calm
Visibility: 10 or more miles (16+ km)
Ceiling: at least 12,000 feet AGL
Clouds: sky clear below 12,000 feet AGL
Present Weather: automated observation with no human augmentation;
there may or may not be significant weather present at this time
KX60 172355Z AUTO 00000KT 10SM CLR 28/24 A3012 RMK A01

Conditions at: KX60 observed 17 June 2018  23:35 UTC
Temperature: 28.0°C (82°F)
Dewpoint: 24.0°C (75°F) [RH = 79%]
Pressure (altimeter): 30.10 inches Hg (1019.4 mb)
Winds: calm
Visibility: 10 or more miles (16+ km)
Ceiling: at least 12,000 feet AGL
Clouds: sky clear below 12,000 feet AGL
Present Weather: automated observation with no human augmentation;
there may or may not be significant weather present at this time
KX60 172335Z AUTO 00000KT 10SM CLR 28/24 A3010 RMK A01

Conditions at: KX60 observed 17 June 2018  23:15 UTC
Temperature: 29.0°C (84°F)
Dewpoint: 24.0°C (75°F) [RH = 74%]
Pressure (altimeter): 30.09 inches Hg (1019.0 mb)
Winds: calm
Visibility: 10 or more miles (16+ km)
Ceiling: at least 12,000 feet AGL
Clouds: sky clear below 12,000 feet AGL
Present Weather: automated observation with no human augmentation;
there may or may not be significant weather present at this time
KX60 172315Z AUTO 00000KT 10SM CLR 29/24 A3009 RMK A01

Conditions at: KX60 observed 17 June 2018  22:55 UTC
Temperature: 29.0°C (84°F)
Dewpoint: 24.0°C (75°F) [RH = 74%]
Pressure (altimeter): 30.09 inches Hg (1019.0 mb)
Winds: from the ENE (60 degrees) at 5 MPH (4 knots; 2.1 m/s)
Visibility: 10 or more miles (16+ km)
Ceiling: at least 12,000 feet AGL
Clouds: sky clear below 12,000 feet AGL
Present Weather: automated observation with no human augmentation;
there may or may not be significant weather present at this time
KX60 172255Z AUTO 06004KT 10SM CLR 29/24 A3009 RMK A01

Conditions at: KX60 observed 17 June 2018  22:35 UTC
Temperature: 29.0°C (84°F)
Dewpoint: 24.0°C (75°F) [RH = 74%]
Pressure (altimeter): 30.08 inches Hg (1018.7 mb)
Winds: from the ENE (70 degrees) at 3 MPH (3 knots; 1.6 m/s)
Visibility: 10 or more miles (16+ km)
Ceiling: at least 12,000 feet AGL
Clouds: sky clear below 12,000 feet AGL
Present Weather: automated observation with no human augmentation;
there may or may not be significant weather present at this time
KX60 172235Z AUTO 07003KT 10SM CLR 29/24 A3008 RMK A01

Conditions at: KX60 observed 17 June 2018  22:15 UTC
Temperature: 31.0°C (88°F)
Dewpoint: 24.0°C (75°F) [RH = 66%]
Pressure (altimeter): 30.08 inches Hg (1018.7 mb)
Winds: from the NE (50 degrees) at 8 MPH (7 knots; 3.6 m/s)
Visibility: 10 or more miles (16+ km)
Ceiling: at least 12,000 feet AGL
Clouds: sky clear below 12,000 feet AGL
Present Weather: automated observation with no human augmentation;
there may or may not be significant weather present at this time
KX60 172215Z AUTO 05007KT 10SM CLR 31/24 A3008 RMK A01

Conditions at: KX60 observed 17 June 2018  21:55 UTC
Temperature: 32.0°C (90°F)
Dewpoint: 24.0°C (75°F) [RH = 63%]
Pressure (altimeter): 30.08 inches Hg (1018.7 mb)
Winds: from the NE (40 degrees) at 7 MPH (6 knots; 3.1 m/s)
Visibility: 10 or more miles (16+ km)
Ceiling: at least 12,000 feet AGL
Clouds: sky clear below 12,000 feet AGL
Present Weather: automated observation with no human augmentation;
there may or may not be significant weather present at this time
KX60 172155Z AUTO 04006KT 10SM CLR 32/24 A3008 RMK A01

Conditions at: KX60 observed 17 June 2018  21:35 UTC
Temperature: 32.0°C (90°F)
Dewpoint: 23.0°C (73°F) [RH = 59%]
Pressure (altimeter): 30.08 inches Hg (1018.7 mb)
Winds: variable direction winds at 6 MPH (5 knots; 2.6 m/s)
Visibility: 9 miles (14 km)
Ceiling: at least 12,000 feet AGL
Clouds: sky clear below 12,000 feet AGL
Present Weather: automated observation with no human augmentation;
there may or may not be significant weather present at this time
KX60 172135Z AUTO VRB05KT 9SM CLR 32/23 A3008 RMK A01

Conditions at: KX60 observed 17 June 2018  21:15 UTC
Temperature: 34.0°C (93°F)
Dewpoint: 24.0°C (75°F) [RH = 56%]
Pressure (altimeter): 30.09 inches Hg (1019.0 mb)
Winds: calm
Visibility: 9 miles (14 km)
Ceiling: at least 12,000 feet AGL
Clouds: sky clear below 12,000 feet AGL
Present Weather: automated observation with no human augmentation;
there may or may not be significant weather present at this time
KX60 172115Z AUTO 00000G11KT 9SM CLR 34/24 A3009 RMK A01

Conditions at: KX60 observed 17 June 2018  20:55 UTC
Temperature: 35.0°C (95°F)
Dewpoint: 24.0°C (75°F) [RH = 53%]
Pressure (altimeter): 30.08 inches Hg (1018.7 mb)
Winds: calm
Visibility: 10 or more miles (16+ km)
Ceiling: at least 12,000 feet AGL
Clouds: sky clear below 12,000 feet AGL
Present Weather: automated observation with no human augmentation;
there may or may not be significant weather present at this time
KX60 172055Z AUTO 00000KT 10SM CLR 35/24 A3008 RMK A01

Conditions at: KX60 observed 17 June 2018  20:35 UTC
Temperature: 34.0°C (93°F)
Dewpoint: 24.0°C (75°F) [RH = 56%]
Pressure (altimeter): 30.08 inches Hg (1018.7 mb)
Winds: calm
Visibility: 10 or more miles (16+ km)
Ceiling: at least 12,000 feet AGL
Clouds: sky clear below 12,000 feet AGL
Present Weather: automated observation with no human augmentation;
there may or may not be significant weather present at this time
KX60 172035Z AUTO 00000KT 10SM CLR 34/24 A3008 RMK A01

Conditions at: KX60 observed 17 June 2018  20:15 UTC
Temperature: 35.0°C (95°F)
Dewpoint: 24.0°C (75°F) [RH = 53%]
Pressure (altimeter): 30.09 inches Hg (1019.0 mb)
Winds: calm
Visibility: 9 miles (14 km)
Ceiling: at least 12,000 feet AGL
Clouds: sky clear below 12,000 feet AGL
Present Weather: automated observation with no human augmentation;
there may or may not be significant weather present at this time
KX60 172015Z AUTO 00000KT 9SM CLR 35/24 A3009 RMK A01

Conditions at: KX60 observed 17 June 2018  19:55 UTC
Temperature: 34.0°C (93°F)
Dewpoint: 24.0°C (75°F) [RH = 56%]
Pressure (altimeter): 30.09 inches Hg (1019.0 mb)
Winds: calm
Visibility: 10 or more miles (16+ km)
Ceiling: at least 12,000 feet AGL
Clouds: sky clear below 12,000 feet AGL
Present Weather: automated observation with no human augmentation;
there may or may not be significant weather present at this time
KX60 171955Z AUTO 00000KT 10SM CLR 34/24 A3009 RMK A01

Conditions at: KX60 observed 17 June 2018  19:35 UTC
Temperature: 35.0°C (95°F)
Dewpoint: 25.0°C (77°F) [RH = 56%]
Pressure (altimeter): 30.09 inches Hg (1019.0 mb)
Winds: calm
Visibility: 10 or more miles (16+ km)
Ceiling: at least 12,000 feet AGL
Clouds: sky clear below 12,000 feet AGL
Present Weather: automated observation with no human augmentation;
there may or may not be significant weather present at this time
KX60 171935Z AUTO 00000KT 10SM CLR 35/25 A3009 RMK A01

Conditions at: KX60 observed 17 June 2018  19:15 UTC
Temperature: 34.0°C (93°F)
Dewpoint: 25.0°C (77°F) [RH = 60%]
Pressure (altimeter): 30.10 inches Hg (1019.4 mb)
Winds: from the NNW (340 degrees) at 6 MPH (5 knots; 2.6 m/s)
Visibility: 9 miles (14 km)
Ceiling: at least 12,000 feet AGL
Clouds: sky clear below 12,000 feet AGL
Present Weather: automated observation with no human augmentation;
there may or may not be significant weather present at this time
KX60 171915Z AUTO 34005KT 9SM CLR 34/25 A3010 RMK A01

Conditions at: KX60 observed 17 June 2018  18:55 UTC
Temperature: 34.0°C (93°F)
Dewpoint: 25.0°C (77°F) [RH = 60%]
Pressure (altimeter): 30.10 inches Hg (1019.4 mb)
Winds: calm
Visibility: 10 or more miles (16+ km)
Ceiling: at least 12,000 feet AGL
Clouds: sky clear below 12,000 feet AGL
Present Weather: automated observation with no human augmentation;
there may or may not be significant weather present at this time
KX60 171855Z AUTO 00000KT 10SM CLR 34/25 A3010 RMK A01

Conditions at: KX60 observed 17 June 2018  18:35 UTC
Temperature: 35.0°C (95°F)
Dewpoint: 25.0°C (77°F) [RH = 56%]
Pressure (altimeter): 30.11 inches Hg (1019.7 mb)
Winds: calm
Visibility: 10 or more miles (16+ km)
Ceiling: at least 12,000 feet AGL
Clouds: sky clear below 12,000 feet AGL
Present Weather: automated observation with no human augmentation;
there may or may not be significant weather present at this time
KX60 171835Z AUTO 00000KT 10SM CLR 35/25 A3011 RMK A01

Conditions at: KX60 observed 17 June 2018  18:15 UTC
Temperature: 34.0°C (93°F)
Dewpoint: 25.0°C (77°F) [RH = 60%]
Pressure (altimeter): 30.12 inches Hg (1020.1 mb)
Winds: calm
Visibility: 10 or more miles (16+ km)
Ceiling: at least 12,000 feet AGL
Clouds: sky clear below 12,000 feet AGL
Present Weather: automated observation with no human augmentation;
there may or may not be significant weather present at this time
KX60 171815Z AUTO 00000KT 10SM CLR 34/25 A3012 RMK A01

Conditions at: KX60 observed 17 June 2018  17:55 UTC
Temperature: 34.0°C (93°F)
Dewpoint: 25.0°C (77°F) [RH = 60%]
Pressure (altimeter): 30.13 inches Hg (1020.4 mb)
Winds: calm
Visibility: 10 or more miles (16+ km)
Ceiling: at least 12,000 feet AGL
Clouds: sky clear below 12,000 feet AGL
Present Weather: automated observation with no human augmentation;
there may or may not be significant weather present at this time
KX60 171755Z AUTO 00000KT 10SM CLR 34/25 A3013 RMK A01

Conditions at: KX60 observed 17 June 2018  17:35 UTC
Temperature: 33.0°C (91°F)
Dewpoint: 25.0°C (77°F) [RH = 63%]
Pressure (altimeter): 30.13 inches Hg (1020.4 mb)
Winds: calm
Visibility: 10 or more miles (16+ km)
Ceiling: at least 12,000 feet AGL
Clouds: few clouds at 6000 feet AGL
few clouds at 8000 feet AGL
few clouds at 9500 feet AGL
Present Weather: automated observation with no human augmentation;
there may or may not be significant weather present at this time
KX60 171735Z AUTO 00000KT 10SM FEW060 FEW080 FEW095 33/25 A3013 RMK A01

Conditions at: KX60 observed 17 June 2018  17:15 UTC
Temperature: 33.0°C (91°F)
Dewpoint: 26.0°C (79°F) [RH = 67%]
Pressure (altimeter): 30.14 inches Hg (1020.7 mb)
Winds: calm
Visibility: 10 or more miles (16+ km)
Ceiling: at least 12,000 feet AGL
Clouds: sky clear below 12,000 feet AGL
Present Weather: automated observation with no human augmentation;
there may or may not be significant weather present at this time
KX60 171715Z AUTO 00000KT 10SM CLR 33/26 A3014 RMK A01

Conditions at: KX60 observed 17 June 2018  16:55 UTC
Temperature: 33.0°C (91°F)
Dewpoint: 26.0°C (79°F) [RH = 67%]
Pressure (altimeter): 30.14 inches Hg (1020.7 mb)
Winds: variable direction winds at 3 MPH (3 knots; 1.6 m/s)
gusting to 12 MPH (10 knots; 5.2 m/s)
Visibility: 10 or more miles (16+ km)
Ceiling: at least 12,000 feet AGL
Clouds: sky clear below 12,000 feet AGL
Present Weather: automated observation with no human augmentation;
there may or may not be significant weather present at this time
KX60 171655Z AUTO VRB03G10KT 10SM CLR 33/26 A3014 RMK A01

Conditions at: KX60 observed 17 June 2018  16:35 UTC
Temperature: 33.0°C (91°F)
Dewpoint: 25.0°C (77°F) [RH = 63%]
Pressure (altimeter): 30.15 inches Hg (1021.1 mb)
Winds: calm
Visibility: 10 or more miles (16+ km)
Ceiling: at least 12,000 feet AGL
Clouds: sky clear below 12,000 feet AGL
Present Weather: automated observation with no human augmentation;
there may or may not be significant weather present at this time
KX60 171635Z AUTO 00000KT 10SM CLR 33/25 A3015 RMK A01

Conditions at: KX60 observed 17 June 2018  15:55 UTC
Temperature: 33.0°C (91°F)
Dewpoint: 25.0°C (77°F) [RH = 63%]
Pressure (altimeter): 30.16 inches Hg (1021.4 mb)
Winds: from the N (10 degrees) at 6 MPH (5 knots; 2.6 m/s)
Visibility: 10 or more miles (16+ km)
Ceiling: at least 12,000 feet AGL
Clouds: sky clear below 12,000 feet AGL
Present Weather: automated observation with no human augmentation;
there may or may not be significant weather present at this time
KX60 171555Z AUTO 01005KT 10SM CLR 33/25 A3016 RMK A01

Conditions at: KX60 observed 17 June 2018  15:35 UTC
Temperature: 33.0°C (91°F)
Dewpoint: 26.0°C (79°F) [RH = 67%]
Pressure (altimeter): 30.16 inches Hg (1021.4 mb)
Winds: calm
Visibility: 10 or more miles (16+ km)
Ceiling: at least 12,000 feet AGL
Clouds: sky clear below 12,000 feet AGL
Present Weather: automated observation with no human augmentation;
there may or may not be significant weather present at this time
KX60 171535Z AUTO 00000KT 10SM CLR 33/26 A3016 RMK A01

Conditions at: KX60 observed 17 June 2018  15:15 UTC
Temperature: 32.0°C (90°F)
Dewpoint: 26.0°C (79°F) [RH = 71%]
Pressure (altimeter): 30.16 inches Hg (1021.4 mb)
Winds: calm
Visibility: 9 miles (14 km)
Ceiling: at least 12,000 feet AGL
Clouds: sky clear below 12,000 feet AGL
Present Weather: automated observation with no human augmentation;
there may or may not be significant weather present at this time
KX60 171515Z AUTO 00000KT 9SM CLR 32/26 A3016 RMK A01

Conditions at: KX60 observed 17 June 2018  14:55 UTC
Temperature: 31.0°C (88°F)
Dewpoint: 26.0°C (79°F) [RH = 75%]
Pressure (altimeter): 30.16 inches Hg (1021.4 mb)
Winds: calm
Visibility: 9 miles (14 km)
Ceiling: at least 12,000 feet AGL
Clouds: sky clear below 12,000 feet AGL
Present Weather: automated observation with no human augmentation;
there may or may not be significant weather present at this time
KX60 171455Z AUTO 00000KT 9SM CLR 31/26 A3016 RMK A01

Conditions at: KX60 observed 17 June 2018  14:35 UTC
Temperature: 31.0°C (88°F)
Dewpoint: 27.0°C (81°F) [RH = 79%]
Pressure (altimeter): 30.16 inches Hg (1021.4 mb)
Winds: calm
Visibility: 9 miles (14 km)
Ceiling: at least 12,000 feet AGL
Clouds: sky clear below 12,000 feet AGL
Present Weather: automated observation with no human augmentation;
there may or may not be significant weather present at this time
KX60 171435Z AUTO 00000KT 9SM CLR 31/27 A3016 RMK A01

Conditions at: KX60 observed 17 June 2018  14:15 UTC
Temperature: 30.0°C (86°F)
Dewpoint: 26.0°C (79°F) [RH = 79%]
Pressure (altimeter): 30.16 inches Hg (1021.4 mb)
Winds: calm
Visibility: 9 miles (14 km)
Ceiling: at least 12,000 feet AGL
Clouds: sky clear below 12,000 feet AGL
Present Weather: automated observation with no human augmentation;
there may or may not be significant weather present at this time
KX60 171415Z AUTO 00000KT 9SM CLR 30/26 A3016 RMK A01

Conditions at: KX60 observed 17 June 2018  13:55 UTC
Temperature: 30.0°C (86°F)
Dewpoint: 26.0°C (79°F) [RH = 79%]
Pressure (altimeter): 30.17 inches Hg (1021.8 mb)
Winds: calm
Visibility: 7 miles (11 km)
Ceiling: at least 12,000 feet AGL
Clouds: sky clear below 12,000 feet AGL
Present Weather: automated observation with no human augmentation;
there may or may not be significant weather present at this time
KX60 171355Z AUTO 00000KT 7SM CLR 30/26 A3017 RMK A01

Conditions at: KX60 observed 17 June 2018  13:35 UTC
Temperature: 29.0°C (84°F)
Dewpoint: 26.0°C (79°F) [RH = 84%]
Pressure (altimeter): 30.17 inches Hg (1021.8 mb)
Winds: calm
Visibility: 9 miles (14 km)
Ceiling: at least 12,000 feet AGL
Clouds: sky clear below 12,000 feet AGL
Present Weather: automated observation with no human augmentation;
there may or may not be significant weather present at this time
KX60 171335Z AUTO 00000KT 9SM CLR 29/26 A3017 RMK A01

Conditions at: KX60 observed 17 June 2018  13:15 UTC
Temperature: 27.0°C (81°F)
Dewpoint: 26.0°C (79°F) [RH = 94%]
Pressure (altimeter): 30.16 inches Hg (1021.4 mb)
Winds: calm
Visibility: 9 miles (14 km)
Ceiling: unknown
Clouds: missing
Present Weather: automated observation with no human augmentation;
there may or may not be significant weather present at this time
KX60 171315Z AUTO 00000KT 9SM 27/26 A3016 RMK A01

Conditions at: KX60 observed 17 June 2018  12:55 UTC
Temperature: 26.0°C (79°F)
Dewpoint: 26.0°C (79°F) [RH = 100%]
Pressure (altimeter): 30.15 inches Hg (1021.1 mb)
Winds: calm
Visibility: 4 miles (6 km)
Ceiling: unknown
Clouds: missing
Present Weather: BR  (mist)
KX60 171255Z AUTO 00000KT 4SM BR 26/26 A3015 RMK A01

Conditions at: KX60 observed 17 June 2018  12:35 UTC
Temperature: 26.0°C (79°F)
Dewpoint: 26.0°C (79°F) [RH = 100%]
Pressure (altimeter): 30.14 inches Hg (1020.7 mb)
Winds: calm
Visibility: 8 miles (13 km)
Ceiling: unknown
Clouds: missing
Present Weather: automated observation with no human augmentation;
there may or may not be significant weather present at this time
KX60 171235Z AUTO 00000KT 8SM 26/26 A3014 RMK A01

Conditions at: KX60 observed 17 June 2018  12:15 UTC
Temperature: 25.0°C (77°F)
Dewpoint: 26.0°C (79°F) [RH = 106%]
Pressure (altimeter): 30.13 inches Hg (1020.4 mb)
Winds: calm
Visibility: 8 miles (13 km)
Ceiling: unknown
Clouds: missing
Present Weather: automated observation with no human augmentation;
there may or may not be significant weather present at this time
KX60 171215Z AUTO 00000KT 8SM 25/26 A3013 RMK A01

Conditions at: KX60 observed 17 June 2018  11:55 UTC
Temperature: 25.0°C (77°F)
Dewpoint: 25.0°C (77°F) [RH = 100%]
Pressure (altimeter): 30.13 inches Hg (1020.4 mb)
Winds: calm
Visibility: 7 miles (11 km)
Ceiling: unknown
Clouds: missing
Present Weather: automated observation with no human augmentation;
there may or may not be significant weather present at this time
KX60 171155Z AUTO 00000KT 7SM 25/25 A3013 RMK A01

Conditions at: KX60 observed 17 June 2018  11:35 UTC
Temperature: 25.0°C (77°F)
Dewpoint: 25.0°C (77°F) [RH = 100%]
Pressure (altimeter): 30.13 inches Hg (1020.4 mb)
Winds: calm
Visibility: 5 miles (8 km)
Ceiling: unknown
Clouds: missing
Present Weather: BR  (mist)
KX60 171135Z AUTO 00000KT 5SM BR 25/25 A3013 RMK A01

Conditions at: KX60 observed 17 June 2018  11:15 UTC
Temperature: 24.0°C (75°F)
Dewpoint: 24.0°C (75°F) [RH = 100%]
Pressure (altimeter): 30.12 inches Hg (1020.1 mb)
Winds: calm
Visibility: 4 miles (6 km)
Ceiling: unknown
Clouds: missing
Present Weather: BR  (mist)
KX60 171115Z AUTO 00000KT 4SM BR 24/24 A3012 RMK A01

Conditions at: KX60 observed 17 June 2018  10:55 UTC
Temperature: 23.0°C (73°F)
Dewpoint: 23.0°C (73°F) [RH = 100%]
Pressure (altimeter): 30.12 inches Hg (1020.1 mb)
Winds: calm
Visibility: 2.00 miles (3.22 km)
Ceiling: unknown
Clouds: missing
Present Weather: BR  (mist)
KX60 171055Z AUTO 00000KT 2SM BR 23/23 A3012 RMK A01

Conditions at: KX60 observed 17 June 2018  10:35 UTC
Temperature: 23.0°C (73°F)
Dewpoint: 23.0°C (73°F) [RH = 100%]
Pressure (altimeter): 30.11 inches Hg (1019.7 mb)
Winds: calm
Visibility: 0.25 miles (0.40 km)
Ceiling: unknown
Clouds: missing
Present Weather: FG  (fog)
KX60 171035Z AUTO 00000KT 1/4SM FG 23/23 A3011 RMK A01

Conditions at: KX60 observed 17 June 2018  10:15 UTC
Temperature: 23.0°C (73°F)
Dewpoint: 23.0°C (73°F) [RH = 100%]
Pressure (altimeter): 30.10 inches Hg (1019.4 mb)
Winds: calm
Visibility: 1.25 miles (2.01 km)
Ceiling: unknown
Clouds: missing
Present Weather: BR  (mist)
KX60 171015Z AUTO 00000KT 1 1/4SM BR 23/23 A3010 RMK A01 VIS 1/2V5

Conditions at: KX60 observed 17 June 2018  09:55 UTC
Temperature: 24.0°C (75°F)
Dewpoint: 24.0°C (75°F) [RH = 100%]
Pressure (altimeter): 30.09 inches Hg (1019.0 mb)
Winds: calm
Visibility: 0.50 miles (0.80 km)
Ceiling: unknown
Clouds: missing
Present Weather: FG  (fog)
KX60 170955Z AUTO 00000KT 1/2SM FG 24/24 A3009 RMK A01

Conditions at: KX60 observed 17 June 2018  09:35 UTC
Temperature: 23.0°C (73°F)
Dewpoint: 23.0°C (73°F) [RH = 100%]
Pressure (altimeter): 30.09 inches Hg (1019.0 mb)
Winds: calm
Visibility: 0.25 miles (0.40 km)
Ceiling: unknown
Clouds: missing
Present Weather: FG  (fog)
KX60 170935Z AUTO 00000KT M1/4SM FG 23/23 A3009 RMK A01

Conditions at: KX60 observed 17 June 2018  09:15 UTC
Temperature: 24.0°C (75°F)
Dewpoint: 24.0°C (75°F) [RH = 100%]
Pressure (altimeter): 30.09 inches Hg (1019.0 mb)
Winds: calm
Visibility: 4 miles (6 km)
Ceiling: unknown
Clouds: missing
Present Weather: BR  (mist)
KX60 170915Z AUTO 00000KT 4SM BR 24/24 A3009 RMK A01

Conditions at: KX60 observed 17 June 2018  08:55 UTC
Temperature: 24.0°C (75°F)
Dewpoint: 24.0°C (75°F) [RH = 100%]
Pressure (altimeter): 30.08 inches Hg (1018.7 mb)
Winds: calm
Visibility: 0.75 miles (1.21 km)
Ceiling: unknown
Clouds: missing
Present Weather: BR  (mist)
KX60 170855Z AUTO 00000KT 3/4SM BR 24/24 A3008 RMK A01

Conditions at: KX60 observed 17 June 2018  08:35 UTC
Temperature: 24.0°C (75°F)
Dewpoint: 24.0°C (75°F) [RH = 100%]
Pressure (altimeter): 30.08 inches Hg (1018.7 mb)
Winds: calm
Visibility: 3 miles (5 km)
Ceiling: unknown
Clouds: missing
Present Weather: BR  (mist)
KX60 170835Z AUTO 00000KT 3SM BR 24/24 A3008 RMK A01

Conditions at: KX60 observed 17 June 2018  08:15 UTC
Temperature: 24.0°C (75°F)
Dewpoint: 24.0°C (75°F) [RH = 100%]
Pressure (altimeter): 30.08 inches Hg (1018.7 mb)
Winds: calm
Visibility: 0.75 miles (1.21 km)
Ceiling: unknown
Clouds: missing
Present Weather: BR  (mist)
KX60 170815Z AUTO 00000KT 3/4SM BR 24/24 A3008 RMK A01

Conditions at: KX60 observed 17 June 2018  07:55 UTC
Temperature: 24.0°C (75°F)
Dewpoint: 24.0°C (75°F) [RH = 100%]
Pressure (altimeter): 30.08 inches Hg (1018.7 mb)
Winds: calm
Visibility: 0.25 miles (0.40 km)
Ceiling: unknown
Clouds: missing
Present Weather: FG  (fog)
KX60 170755Z AUTO 00000KT 1/4SM FG 24/24 A3008 RMK A01

Conditions at: KX60 observed 17 June 2018  07:35 UTC
Temperature: 24.0°C (75°F)
Dewpoint: 24.0°C (75°F) [RH = 100%]
Pressure (altimeter): 30.09 inches Hg (1019.0 mb)
Winds: calm
Visibility: 0.50 miles (0.80 km)
Ceiling: unknown
Clouds: missing
Present Weather: BR  (mist)
KX60 170735Z AUTO 00000KT 1/2SM BR 24/24 A3009 RMK A01

Conditions at: KX60 observed 17 June 2018  07:15 UTC
Temperature: 24.0°C (75°F)
Dewpoint: 24.0°C (75°F) [RH = 100%]
Pressure (altimeter): 30.09 inches Hg (1019.0 mb)
Winds: calm
Visibility: 0.75 miles (1.21 km)
Ceiling: unknown
Clouds: missing
Present Weather: BR  (mist)
KX60 170715Z AUTO 00000KT 3/4SM BR 24/24 A3009 RMK A01 VIS 1/4V2 1/2